M I D A S
Marine Information and Data Acquisition System
Tripno 1481 of the Zeeleeuw from 2008-05-07 07:14:58 to 2008-05-08 14:39:03
Back to CruiseResearch ActivitiesStationsMapUnderway DataData graphs

EquipmentUnitsComment
TimeDGPSUTC
LatitudeDGPSDM.mWGS84
LongitudeDGPSDM.mWGS84
HeadingGyrodeg 
SOGDGPSknotsSpeed over ground
COGDGPSdegCourse over ground
DepthEcho soundermeters200 kHz
Missing or incorrect values are displayed as -999
Navigation data collected by the RV Zeeleeuw from 2008-05-07 07:18:57 to 2008-05-08 14:44:06
                                                                                    Next 1000 lines
Time Latitude Longitude Heading SOG COG Depth
2008-05-07 07:19:07 51°13.667 2°55.95 117.8 1.2 301 -999
2008-05-07 07:19:12 51°13.668 2°55.947 117.8 1.7 298 4.6
2008-05-07 07:19:17 51°13.67 2°55.942 117.7 2.3 301 4.6
2008-05-07 07:19:22 51°13.671 2°55.937 117.6 2.6 299 -999
2008-05-07 07:19:27 51°13.673 2°55.932 117.6 2.9 300 -999
2008-05-07 07:19:32 51°13.676 2°55.926 117.8 3.2 302 -999
2008-05-07 07:19:37 51°13.678 2°55.919 118 3.4 301 -999
2008-05-07 07:19:42 51°13.681 2°55.912 118 3.6 302 -999
2008-05-07 07:19:47 51°13.683 2°55.905 117.5 3.8 301 -999
2008-05-07 07:19:52 51°13.686 2°55.898 116.4 3.9 301 -999
2008-05-07 07:19:57 51°13.689 2°55.89 114.7 3.9 299 -999
2008-05-07 07:20:02 51°13.691 2°55.883 112.2 3.9 296 -999
2008-05-07 07:20:07 51°13.693 2°55.875 109.4 3.9 292 -999
2008-05-07 07:20:12 51°13.695 2°55.866 106.7 3.9 289 -999
2008-05-07 07:20:17 51°13.696 2°55.858 104.2 3.9 287 -999
2008-05-07 07:20:22 51°13.697 2°55.85 101.8 3.9 284 -999
2008-05-07 07:20:27 51°13.698 2°55.842 99.6 3.8 282 -999
2008-05-07 07:20:32 51°13.699 2°55.833 97.6 3.8 280 -999
2008-05-07 07:20:37 51°13.7 2°55.825 95.7 3.7 279 -999
2008-05-07 07:20:42 51°13.701 2°55.818 94 3.6 278 -999
2008-05-07 07:20:47 51°13.701 2°55.81 92.6 3.4 277 -999
2008-05-07 07:20:52 51°13.702 2°55.803 91.3 3.3 275 -999
2008-05-07 07:20:57 51°13.702 2°55.796 90.1 3.2 275 7.8
2008-05-07 07:21:02 51°13.702 2°55.79 89.1 3.1 275 -999
2008-05-07 07:21:07 51°13.702 2°55.784 87.5 2.9 273 -999
2008-05-07 07:21:12 51°13.702 2°55.777 86.5 2.9 272 -999
2008-05-07 07:21:17 51°13.702 2°55.771 85.5 2.7 271 9.9
2008-05-07 07:21:22 51°13.702 2°55.766 84.1 2.7 271 -999
2008-05-07 07:21:27 51°13.702 2°55.76 82.9 2.6 269 -999
2008-05-07 07:21:32 51°13.702 2°55.755 81.9 2.4 269 12.3
2008-05-07 07:21:37 51°13.702 2°55.749 81 2.3 268 11.9
2008-05-07 07:21:42 51°13.702 2°55.745 80.1 2.2 268 11.7
2008-05-07 07:21:46 51°13.702 2°55.741 79 2 267 11.4
2008-05-07 07:21:52 51°13.702 2°55.736 78.1 1.9 268 11.3
2008-05-07 07:21:57 51°13.702 2°55.732 77.1 1.7 266 11.2
2008-05-07 07:22:02 51°13.702 2°55.729 75.8 1.6 267 11.6
2008-05-07 07:22:07 51°13.701 2°55.726 74.1 1.4 266 11.6
2008-05-07 07:22:12 51°13.701 2°55.724 72 1.2 267 11.7
2008-05-07 07:22:17 51°13.701 2°55.721 69 1 267 12.4
2008-05-07 07:22:22 51°13.702 2°55.719 66.7 0.9 272 -999
2008-05-07 07:22:27 51°13.702 2°55.718 63.7 0.7 275 -999
2008-05-07 07:22:32 51°13.702 2°55.716 61.6 0.6 284 13.3
2008-05-07 07:22:37 51°13.702 2°55.716 59.7 0.5 295 13.3
2008-05-07 07:22:42 51°13.703 2°55.715 57.1 0.5 326 13.3
2008-05-07 07:22:47 51°13.704 2°55.715 53.9 0.6 7 -999
2008-05-07 07:22:52 51°13.704 2°55.716 48.9 0.8 13 -999
2008-05-07 07:22:57 51°13.706 2°55.716 44.1 1.1 20 12.7
2008-05-07 07:23:01 51°13.707 2°55.717 41 1.2 19 11.8
2008-05-07 07:23:07 51°13.71 2°55.718 36.6 1.5 18 10.7
2008-05-07 07:23:12 51°13.712 2°55.719 30.9 1.7 14 10.2
2008-05-07 07:23:17 51°13.715 2°55.72 25 1.9 9 10.1
2008-05-07 07:23:22 51°13.718 2°55.72 18.9 2.1 5 10.1
2008-05-07 07:23:27 51°13.721 2°55.721 13 2.4 1 -999
2008-05-07 07:23:32 51°13.725 2°55.72 5.5 2.6 355 9.5
2008-05-07 07:23:37 51°13.729 2°55.719 358.6 3 348 9.2
2008-05-07 07:23:42 51°13.733 2°55.717 352.9 3.3 344 9
2008-05-07 07:23:47 51°13.738 2°55.714 345.7 3.6 340 -999
2008-05-07 07:23:52 51°13.743 2°55.71 340.2 4 337 -999
2008-05-07 07:23:57 51°13.749 2°55.706 337.5 4.3 335 -999
2008-05-07 07:24:02 51°13.755 2°55.702 336 4.6 334 -999
2008-05-07 07:24:06 51°13.759 2°55.698 335.5 4.8 334 8.3
2008-05-07 07:24:12 51°13.767 2°55.692 335.4 5.1 334 -999
2008-05-07 07:24:17 51°13.773 2°55.686 335.2 5.3 333 -999
2008-05-07 07:24:22 51°13.78 2°55.681 334.9 5.4 333 -999
2008-05-07 07:24:27 51°13.787 2°55.675 334.9 5.6 333 -999
2008-05-07 07:24:32 51°13.794 2°55.67 335.2 5.7 334 8.1
2008-05-07 07:24:37 51°13.801 2°55.664 335.3 5.9 334 -999
2008-05-07 07:24:42 51°13.809 2°55.658 335.4 6 334 8.1
2008-05-07 07:24:47 51°13.816 2°55.652 335.3 6.1 334 8.1
2008-05-07 07:24:52 51°13.824 2°55.646 334.8 6.2 334 8
2008-05-07 07:24:57 51°13.832 2°55.639 334.5 6.3 334 8
2008-05-07 07:25:02 51°13.84 2°55.633 334.5 6.4 335 8.2
2008-05-07 07:25:07 51°13.848 2°55.626 334.8 6.5 335 8.3
2008-05-07 07:25:12 51°13.856 2°55.621 335.2 6.6 334 -999
2008-05-07 07:25:17 51°13.865 2°55.615 335.2 6.7 335 8.8
2008-05-07 07:25:22 51°13.873 2°55.609 334.9 6.7 334 -999
2008-05-07 07:25:27 51°13.882 2°55.602 334.7 6.7 334 -999
2008-05-07 07:25:32 51°13.89 2°55.596 334.8 6.8 334 -999
2008-05-07 07:25:37 51°13.899 2°55.589 334.8 6.8 334 -999
2008-05-07 07:25:42 51°13.907 2°55.583 335.1 6.8 334 -999
2008-05-07 07:25:47 51°13.916 2°55.576 335.4 6.9 335 -999
2008-05-07 07:25:52 51°13.924 2°55.57 336.1 6.9 336 -999
2008-05-07 07:25:57 51°13.933 2°55.564 336.3 6.8 336 -999
2008-05-07 07:26:02 51°13.941 2°55.558 336.3 6.8 336 -999
2008-05-07 07:26:07 51°13.95 2°55.552 336.3 6.7 336 -999
2008-05-07 07:26:12 51°13.959 2°55.547 336.2 6.7 336 -999
2008-05-07 07:26:17 51°13.967 2°55.541 336.3 6.6 337 -999
2008-05-07 07:26:22 51°13.976 2°55.535 336.5 6.5 336 -999
2008-05-07 07:26:27 51°13.984 2°55.529 336.5 6.5 337 -999
2008-05-07 07:26:32 51°13.992 2°55.524 336.3 6.4 337 -999
2008-05-07 07:26:37 51°14 2°55.518 336.2 6.4 336 -999
2008-05-07 07:26:42 51°14.008 2°55.512 336.2 6.4 336 -999
2008-05-07 07:26:47 51°14.016 2°55.506 336.2 6.3 335 -999
2008-05-07 07:26:52 51°14.023 2°55.499 336 6.3 334 -999
2008-05-07 07:26:57 51°14.031 2°55.493 335.2 6.3 332 -999
2008-05-07 07:27:02 51°14.039 2°55.486 334.3 6.3 331 -999
2008-05-07 07:27:07 51°14.046 2°55.479 333.9 6.4 332 -999
2008-05-07 07:27:12 51°14.054 2°55.473 333.9 6.4 333 -999
2008-05-07 07:27:17 51°14.062 2°55.466 334.7 6.4 334 -999
2008-05-07 07:27:22 51°14.07 2°55.461 335.3 6.5 335 -999
2008-05-07 07:27:27 51°14.079 2°55.455 336 6.5 335 -999
2008-05-07 07:27:32 51°14.087 2°55.449 336.1 6.5 335 -999
2008-05-07 07:27:37 51°14.095 2°55.443 335.8 6.5 335 -999
2008-05-07 07:27:42 51°14.103 2°55.437 334.8 6.6 334 -999
2008-05-07 07:27:47 51°14.112 2°55.43 333.5 6.6 333 -999
2008-05-07 07:27:52 51°14.12 2°55.423 332.7 6.7 333 -999
2008-05-07 07:27:57 51°14.128 2°55.416 332.5 6.8 332 -999
2008-05-07 07:28:02 51°14.137 2°55.409 332.5 6.9 333 -999
2008-05-07 07:28:07 51°14.145 2°55.402 332.6 6.9 332 -999
2008-05-07 07:28:12 51°14.154 2°55.395 332.3 7 331 -999
2008-05-07 07:28:17 51°14.162 2°55.387 331.3 7.1 330 -999
2008-05-07 07:28:22 51°14.17 2°55.378 330.3 7.1 329 -999
2008-05-07 07:28:27 51°14.178 2°55.369 328.9 7.1 327 -999
2008-05-07 07:28:32 51°14.187 2°55.361 327.1 7.2 325 -999
2008-05-07 07:28:37 51°14.195 2°55.351 325.6 7.3 324 -999
2008-05-07 07:28:42 51°14.203 2°55.341 324.3 7.4 322 -999
2008-05-07 07:28:47 51°14.211 2°55.33 322.7 7.5 321 -999
2008-05-07 07:28:52 51°14.219 2°55.319 321.4 7.6 320 -999
2008-05-07 07:28:57 51°14.227 2°55.308 320.3 7.6 319 -999
2008-05-07 07:29:02 51°14.235 2°55.296 319.4 7.7 317 -999
2008-05-07 07:29:07 51°14.243 2°55.285 318 7.7 316 9.1
2008-05-07 07:29:12 51°14.25 2°55.273 316.4 7.8 315 -999
2008-05-07 07:29:17 51°14.258 2°55.261 315.2 7.8 314 8.9
2008-05-07 07:29:22 51°14.265 2°55.248 314.8 7.8 314 8.5
2008-05-07 07:29:27 51°14.273 2°55.236 314.5 7.8 313 8.5
2008-05-07 07:29:32 51°14.28 2°55.223 314.2 7.9 312 8.7
2008-05-07 07:29:37 51°14.287 2°55.21 313.8 7.9 311 8.7
2008-05-07 07:29:41 51°14.293 2°55.2 312.8 7.9 311 8.5
2008-05-07 07:29:47 51°14.302 2°55.183 311.6 7.9 310 8.2
2008-05-07 07:29:52 51°14.309 2°55.17 310.8 7.9 310 8.4
2008-05-07 07:29:57 51°14.315 2°55.157 310.7 7.7 310 8.4
2008-05-07 07:30:02 51°14.322 2°55.144 310.7 7.6 310 8.5
2008-05-07 07:30:07 51°14.328 2°55.131 310.5 7.4 310 8.7
2008-05-07 07:30:12 51°14.335 2°55.119 309.8 7.3 308 8.9
2008-05-07 07:30:17 51°14.341 2°55.106 309.2 7.2 308 9.1
2008-05-07 07:30:22 51°14.347 2°55.094 308.9 7.1 307 9.2
2008-05-07 07:30:27 51°14.353 2°55.081 308.3 7 307 9.2
2008-05-07 07:30:32 51°14.358 2°55.068 307.5 7 305 10
2008-05-07 07:30:37 51°14.364 2°55.056 306.4 7 305 9.6
2008-05-07 07:30:42 51°14.369 2°55.043 305.5 7.1 304 9.3
2008-05-07 07:30:47 51°14.375 2°55.03 304.7 7 304 9.2
2008-05-07 07:30:52 51°14.38 2°55.017 304.6 7.1 305 8.8
2008-05-07 07:30:57 51°14.386 2°55.004 305.4 7.2 306 8.7
2008-05-07 07:31:02 51°14.392 2°54.991 306.9 7.4 307 8.5
2008-05-07 07:31:06 51°14.397 2°54.98 308.6 7.7 308 8.6
2008-05-07 07:31:12 51°14.406 2°54.964 310 8.1 311 8.9
2008-05-07 07:31:17 51°14.415 2°54.95 312.5 8.5 313 8.8
2008-05-07 07:31:22 51°14.423 2°54.937 315 8.7 316 9
2008-05-07 07:31:26 51°14.431 2°54.926 318.5 9 320 8.9
2008-05-07 07:31:31 51°14.441 2°54.914 322.9 9.2 324 8.9
2008-05-07 07:31:36 51°14.452 2°54.903 327.5 9.3 328 8.9
2008-05-07 07:31:41 51°14.464 2°54.892 331.6 9.6 327 8.8
2008-05-07 07:31:46 51°14.475 2°54.88 332.1 10 327 8.8
2008-05-07 07:31:52 51°14.49 2°54.864 332 10.4 325 8.7
2008-05-07 07:31:57 51°14.501 2°54.85 331.8 10.7 323 8.5
2008-05-07 07:32:02 51°14.513 2°54.835 330.9 10.9 322 8.4
2008-05-07 07:32:07 51°14.526 2°54.82 330.4 11.1 324 8.3
2008-05-07 07:32:12 51°14.539 2°54.806 331.2 11.3 324 8.2
2008-05-07 07:32:17 51°14.552 2°54.791 332 11.5 324 8.1
2008-05-07 07:32:22 51°14.565 2°54.776 332.3 11.6 325 7.9
2008-05-07 07:32:27 51°14.578 2°54.761 332.6 11.7 325 8
2008-05-07 07:32:32 51°14.592 2°54.747 333 11.9 326 7.9
2008-05-07 07:32:37 51°14.606 2°54.732 333.7 12 326 7.9
2008-05-07 07:32:42 51°14.619 2°54.717 333.6 12 326 7.8
2008-05-07 07:32:47 51°14.633 2°54.702 333.4 12.1 325 7.8
2008-05-07 07:32:52 51°14.647 2°54.686 333.1 12.2 325 7.8
2008-05-07 07:32:57 51°14.661 2°54.671 332.9 12.2 326 7.8
2008-05-07 07:33:02 51°14.675 2°54.656 332.9 12.2 326 7.8
2008-05-07 07:33:07 51°14.689 2°54.641 333 12.3 326 7.9
2008-05-07 07:33:12 51°14.703 2°54.626 333.1 12.3 326 7.8
2008-05-07 07:33:17 51°14.718 2°54.611 333.1 12.3 326 7.8
2008-05-07 07:33:22 51°14.732 2°54.595 333 12.3 324 7.8
2008-05-07 07:33:27 51°14.745 2°54.579 331.9 12.3 324 7.8
2008-05-07 07:33:32 51°14.759 2°54.563 331.2 12.3 324 7.9
2008-05-07 07:33:37 51°14.773 2°54.547 330.6 12.3 323 7.8
2008-05-07 07:33:42 51°14.787 2°54.531 330 12.3 323 7.8
2008-05-07 07:33:47 51°14.8 2°54.514 329.5 12.3 323 7.8
2008-05-07 07:33:52 51°14.814 2°54.498 329.2 12.3 324 7.7
2008-05-07 07:33:57 51°14.828 2°54.483 329.5 12.3 325 7.9
2008-05-07 07:34:02 51°14.842 2°54.468 330.7 12.3 327 7.7
2008-05-07 07:34:07 51°14.856 2°54.453 331.6 12.3 326 7.7
2008-05-07 07:34:12 51°14.871 2°54.438 331.9 12.2 327 7.5
2008-05-07 07:34:17 51°14.885 2°54.424 332.5 12.2 329 7.6
2008-05-07 07:34:22 51°14.899 2°54.41 333.8 12.1 329 7.5
2008-05-07 07:34:27 51°14.914 2°54.397 334.5 12.1 330 7.3
2008-05-07 07:34:32 51°14.928 2°54.383 335.1 12 330 7.3
2008-05-07 07:34:37 51°14.943 2°54.371 335.3 11.9 330 7.1
2008-05-07 07:34:42 51°14.957 2°54.358 336 11.8 330 5.3
2008-05-07 07:34:47 51°14.971 2°54.345 336.4 11.8 331 6.9
2008-05-07 07:34:52 51°14.985 2°54.332 336.7 11.7 330 6.7
2008-05-07 07:34:57 51°14.999 2°54.319 336.4 11.7 330 6.6
2008-05-07 07:35:02 51°15.013 2°54.306 336.1 11.7 329 6.7
2008-05-07 07:35:07 51°15.027 2°54.292 335.9 11.7 329 6.7
2008-05-07 07:35:12 51°15.041 2°54.279 335.4 11.7 329 6.6
2008-05-07 07:35:17 51°15.055 2°54.266 335.3 11.8 329 6.7
2008-05-07 07:35:22 51°15.069 2°54.252 335.2 11.8 329 6.8
2008-05-07 07:35:27 51°15.083 2°54.239 335.1 11.8 329 6.9
2008-05-07 07:35:32 51°15.097 2°54.225 335 11.8 329 6.8
2008-05-07 07:35:37 51°15.111 2°54.212 335.1 11.9 330 6.8
2008-05-07 07:35:42 51°15.125 2°54.199 335.5 11.9 330 6.9
2008-05-07 07:35:47 51°15.139 2°54.186 336 11.9 331 6.8
2008-05-07 07:35:52 51°15.154 2°54.173 336.6 12 331 6.9
2008-05-07 07:35:57 51°15.169 2°54.161 337.4 11.9 332 7
2008-05-07 07:36:02 51°15.183 2°54.148 338.1 11.9 332 7
2008-05-07 07:36:07 51°15.198 2°54.136 338.7 12 332 7.2
2008-05-07 07:36:12 51°15.213 2°54.123 338.8 12.1 332 7.3
2008-05-07 07:36:17 51°15.228 2°54.111 338.8 12.1 332 7.3
2008-05-07 07:36:22 51°15.242 2°54.098 338.6 12.1 332 5.5
2008-05-07 07:36:27 51°15.257 2°54.085 338.5 12.2 331 7.3
2008-05-07 07:36:32 51°15.272 2°54.072 338.1 12.2 331 7.3
2008-05-07 07:36:37 51°15.287 2°54.059 337.8 12.2 331 7.4
2008-05-07 07:36:42 51°15.302 2°54.046 337.9 12.1 332 7.6
2008-05-07 07:36:47 51°15.316 2°54.033 338.2 12.2 332 7.7
2008-05-07 07:36:52 51°15.331 2°54.02 338.4 12.2 332 7.8
2008-05-07 07:36:57 51°15.346 2°54.008 338.4 12.2 332 7.6
2008-05-07 07:37:02 51°15.361 2°53.994 338.6 12.2 331 7.7
2008-05-07 07:37:07 51°15.376 2°53.981 338.6 12.2 331 7.8
2008-05-07 07:37:12 51°15.391 2°53.968 338.3 12.3 331 7.8
2008-05-07 07:37:17 51°15.406 2°53.955 338.3 12.3 331 8
2008-05-07 07:37:22 51°15.42 2°53.942 338.3 12.3 331 7.8
2008-05-07 07:37:27 51°15.435 2°53.929 338.3 12.3 331 8
2008-05-07 07:37:32 51°15.45 2°53.915 338.3 12.3 330 8.1
2008-05-07 07:37:37 51°15.465 2°53.901 338.1 12.3 330 8.1
2008-05-07 07:37:42 51°15.48 2°53.888 338.1 12.3 330 8.1
2008-05-07 07:37:47 51°15.494 2°53.875 338.1 12.3 330 8.2
2008-05-07 07:37:52 51°15.509 2°53.862 338.4 12.3 331 8.3
2008-05-07 07:37:57 51°15.524 2°53.848 338.7 12.3 331 8.4
2008-05-07 07:38:02 51°15.539 2°53.835 338.7 12.3 331 8.5
2008-05-07 07:38:07 51°15.554 2°53.822 339 12.3 331 8.6
2008-05-07 07:38:12 51°15.569 2°53.808 339.2 12.4 331 8.6
2008-05-07 07:38:17 51°15.584 2°53.795 339 12.4 331 8.8
2008-05-07 07:38:22 51°15.599 2°53.781 339 12.4 330 8.5
2008-05-07 07:38:27 51°15.614 2°53.768 338.7 12.3 330 8.7
2008-05-07 07:38:32 51°15.629 2°53.754 338.7 12.4 330 8.9
2008-05-07 07:38:37 51°15.644 2°53.741 338.7 12.3 331 8.6
2008-05-07 07:38:42 51°15.658 2°53.728 339.3 12.3 330 8.8
2008-05-07 07:38:47 51°15.673 2°53.714 339.4 12.3 330 8.8
2008-05-07 07:38:52 51°15.688 2°53.701 339.1 12.3 331 8.8
2008-05-07 07:38:57 51°15.703 2°53.688 339.1 12.3 331 8.9
2008-05-07 07:39:02 51°15.718 2°53.675 339.3 12.3 331 8.8
2008-05-07 07:39:07 51°15.733 2°53.661 339.6 12.3 330 8.9
2008-05-07 07:39:12 51°15.748 2°53.648 339.2 12.3 331 9
2008-05-07 07:39:17 51°15.763 2°53.634 339.1 12.3 331 9.1
2008-05-07 07:39:22 51°15.777 2°53.621 339.5 12.4 330 9
2008-05-07 07:39:27 51°15.792 2°53.607 339.3 12.3 330 9.1
2008-05-07 07:39:32 51°15.807 2°53.594 339 12.3 330 9.2
2008-05-07 07:39:37 51°15.822 2°53.58 339 12.3 330 9.1
2008-05-07 07:39:42 51°15.837 2°53.567 339.1 12.3 330 9.2
2008-05-07 07:39:47 51°15.852 2°53.553 339.2 12.3 330 9.3
2008-05-07 07:39:52 51°15.867 2°53.54 339.3 12.3 330 9.2
2008-05-07 07:39:57 51°15.881 2°53.526 339.2 12.3 330 9.3
2008-05-07 07:40:02 51°15.896 2°53.513 339.2 12.3 330 9.3
2008-05-07 07:40:07 51°15.911 2°53.499 339 12.4 330 9.4
2008-05-07 07:40:12 51°15.926 2°53.485 339 12.3 330 9.4
2008-05-07 07:40:17 51°15.941 2°53.472 339.1 12.3 330 9.4
2008-05-07 07:40:22 51°15.956 2°53.458 339.2 12.3 330 9.5
2008-05-07 07:40:27 51°15.97 2°53.444 339.5 12.4 329 9.5
2008-05-07 07:40:32 51°15.985 2°53.43 339.3 12.4 329 9.4
2008-05-07 07:40:37 51°16 2°53.416 339 12.4 329 9.5
2008-05-07 07:40:42 51°16.015 2°53.402 338.9 12.4 329 9.5
2008-05-07 07:40:47 51°16.029 2°53.388 338.9 12.4 329 9.5
2008-05-07 07:40:52 51°16.044 2°53.374 339.1 12.4 329 9.6
2008-05-07 07:40:57 51°16.059 2°53.36 339.3 12.4 330 9.6
2008-05-07 07:41:02 51°16.074 2°53.347 339.4 12.4 331 9.6
2008-05-07 07:41:07 51°16.089 2°53.334 339.9 12.4 331 9.6
2008-05-07 07:41:12 51°16.104 2°53.32 340.4 12.5 329 9.6
2008-05-07 07:41:17 51°16.119 2°53.306 339.6 12.4 330 9.7
2008-05-07 07:41:22 51°16.134 2°53.292 339.2 12.4 330 9.7
2008-05-07 07:41:27 51°16.149 2°53.279 339.3 12.3 331 9.7
2008-05-07 07:41:32 51°16.164 2°53.266 339.6 12.4 331 9.7
2008-05-07 07:41:37 51°16.179 2°53.253 339.6 12.3 331 9.7
2008-05-07 07:41:42 51°16.194 2°53.239 339.6 12.3 331 9.8
2008-05-07 07:41:47 51°16.209 2°53.226 339.6 12.3 331 9.7
2008-05-07 07:41:52 51°16.223 2°53.213 339.6 12.3 330 9.7
2008-05-07 07:41:57 51°16.238 2°53.199 339.4 12.3 330 9.8
2008-05-07 07:42:02 51°16.253 2°53.185 339.2 12.3 330 9.8
2008-05-07 07:42:07 51°16.268 2°53.172 338.7 12.3 330 9.8
2008-05-07 07:42:12 51°16.282 2°53.158 338.8 12.3 330 9.8
2008-05-07 07:42:17 51°16.297 2°53.145 338.9 12.2 330 9.8
2008-05-07 07:42:22 51°16.312 2°53.131 339.2 12.3 329 9.8
2008-05-07 07:42:27 51°16.326 2°53.117 339.1 12.3 329 9.9
2008-05-07 07:42:32 51°16.341 2°53.103 338.7 12.3 330 9.8
2008-05-07 07:42:37 51°16.356 2°53.089 338.9 12.3 329 9.9
2008-05-07 07:42:42 51°16.371 2°53.076 339.1 12.2 330 9.8
2008-05-07 07:42:47 51°16.385 2°53.062 339.4 12.2 329 9.9
2008-05-07 07:42:52 51°16.4 2°53.048 339.5 12.2 330 9.9
2008-05-07 07:42:57 51°16.414 2°53.034 339.5 12.3 329 9.9
2008-05-07 07:43:02 51°16.429 2°53.021 339.1 12.2 331 9.9
2008-05-07 07:43:07 51°16.444 2°53.008 339.5 12.2 331 9.9
2008-05-07 07:43:12 51°16.459 2°52.996 340.1 12.1 333 9.9
2008-05-07 07:43:17 51°16.474 2°52.983 341.1 12.2 332 9.9
2008-05-07 07:43:22 51°16.489 2°52.971 341.3 12.1 334 9.9
2008-05-07 07:43:27 51°16.503 2°52.958 341.8 12.1 332 9.8
2008-05-07 07:43:32 51°16.518 2°52.946 341.8 12.1 333 9.8
2008-05-07 07:43:36 51°16.53 2°52.937 341.8 12.1 333 9.8
2008-05-07 07:43:42 51°16.548 2°52.923 341.8 12 334 9.9
2008-05-07 07:43:47 51°16.563 2°52.911 341.8 12.1 334 9.9
2008-05-07 07:43:52 51°16.578 2°52.9 341.8 12.1 335 9.9
2008-05-07 07:43:57 51°16.594 2°52.889 341.7 12 336 9.8
2008-05-07 07:44:02 51°16.609 2°52.879 342.4 12 337 9.8
2008-05-07 07:44:07 51°16.624 2°52.869 342.7 12 337 9.6
2008-05-07 07:44:12 51°16.639 2°52.858 342.7 12 336 9.7
2008-05-07 07:44:17 51°16.655 2°52.847 342 12 336 9.7
2008-05-07 07:44:22 51°16.67 2°52.836 341.7 11.9 336 9.3
2008-05-07 07:44:27 51°16.685 2°52.825 341.7 12 335 9.3
2008-05-07 07:44:31 51°16.697 2°52.817 341.4 11.9 336 9.2
2008-05-07 07:44:37 51°16.715 2°52.804 341.5 11.9 336 9.1
2008-05-07 07:44:42 51°16.73 2°52.794 341.5 11.9 336 8.9
2008-05-07 07:44:47 51°16.745 2°52.783 341.6 11.8 335 8.6
2008-05-07 07:44:52 51°16.76 2°52.772 341.1 11.8 336 8.3
2008-05-07 07:44:57 51°16.775 2°52.761 341.2 11.7 335 8.1
2008-05-07 07:45:02 51°16.789 2°52.751 341.1 11.6 335 7.9
2008-05-07 07:45:07 51°16.804 2°52.74 340.9 11.6 335 7.9
2008-05-07 07:45:12 51°16.819 2°52.73 340.9 11.6 336 7.9
2008-05-07 07:45:17 51°16.833 2°52.719 341.2 11.6 335 7.8
2008-05-07 07:45:22 51°16.848 2°52.708 341.2 11.6 335 7.6
2008-05-07 07:45:27 51°16.862 2°52.697 341 11.6 335 7.6
2008-05-07 07:45:32 51°16.877 2°52.686 340.7 11.6 335 7.6
2008-05-07 07:45:37 51°16.891 2°52.675 340.7 11.5 335 7.6
2008-05-07 07:45:42 51°16.906 2°52.665 340.8 11.6 335 7.6
2008-05-07 07:45:47 51°16.92 2°52.654 341 11.6 335 7.6
2008-05-07 07:45:52 51°16.935 2°52.643 341 11.7 335 7.8
2008-05-07 07:45:57 51°16.95 2°52.632 340.7 11.7 335 8
2008-05-07 07:46:02 51°16.965 2°52.621 340.8 11.7 335 8.1
2008-05-07 07:46:07 51°16.979 2°52.61 340.9 11.8 335 8.1
2008-05-07 07:46:12 51°16.994 2°52.599 341 11.8 335 8.1
2008-05-07 07:46:17 51°17.009 2°52.588 341 11.8 335 8.1
2008-05-07 07:46:22 51°17.024 2°52.577 341.1 11.8 335 8
2008-05-07 07:46:27 51°17.038 2°52.566 341.1 11.7 335 7.7
2008-05-07 07:46:32 51°17.053 2°52.555 341.1 11.6 335 7.8
2008-05-07 07:46:37 51°17.068 2°52.545 341.1 11.6 335 7.8
2008-05-07 07:46:42 51°17.082 2°52.534 341.1 11.6 335 7.7
2008-05-07 07:46:47 51°17.097 2°52.523 341 11.6 335 7.8
2008-05-07 07:46:51 51°17.108 2°52.514 341 11.7 335 7.9
2008-05-07 07:46:57 51°17.126 2°52.501 340.9 11.7 335 7.8
2008-05-07 07:47:02 51°17.141 2°52.489 340.9 11.7 335 7.9
2008-05-07 07:47:07 51°17.155 2°52.479 340.8 11.7 335 8
2008-05-07 07:47:11 51°17.167 2°52.469 341 11.7 334 8.2
2008-05-07 07:47:17 51°17.184 2°52.455 341 11.8 332 8
2008-05-07 07:47:22 51°17.199 2°52.443 339.4 11.7 332 8.1
2008-05-07 07:47:27 51°17.213 2°52.43 338.5 11.8 331 8.1
2008-05-07 07:47:32 51°17.227 2°52.417 337.4 11.8 330 8.2
2008-05-07 07:47:37 51°17.241 2°52.403 336.9 11.8 329 8.3
2008-05-07 07:47:42 51°17.255 2°52.39 336.1 11.8 330 8.4
2008-05-07 07:47:47 51°17.269 2°52.376 336 11.8 329 8.3
2008-05-07 07:47:52 51°17.283 2°52.363 335.9 11.9 329 8.6
2008-05-07 07:47:57 51°17.298 2°52.35 335.9 11.9 329 8.6
2008-05-07 07:48:02 51°17.312 2°52.337 335.9 11.9 330 8.5
2008-05-07 07:48:07 51°17.326 2°52.323 336.3 11.9 329 8.4
2008-05-07 07:48:12 51°17.34 2°52.31 336.2 11.8 330 8.5
2008-05-07 07:48:17 51°17.354 2°52.296 336.2 11.8 329 8.6
2008-05-07 07:48:22 51°17.368 2°52.283 336 11.9 329 8.7
2008-05-07 07:48:26 51°17.38 2°52.272 336 11.8 330 8.7
2008-05-07 07:48:32 51°17.397 2°52.256 336.3 11.9 329 8.5
2008-05-07 07:48:37 51°17.41 2°52.242 336.2 11.9 327 8.6
2008-05-07 07:48:42 51°17.425 2°52.228 334.7 11.9 328 8.7
2008-05-07 07:48:47 51°17.438 2°52.213 334.5 11.9 327 8.6
2008-05-07 07:48:52 51°17.452 2°52.199 334 11.9 327 8.8
2008-05-07 07:48:57 51°17.466 2°52.184 333.7 11.9 326 8.6
2008-05-07 07:49:02 51°17.48 2°52.169 333.3 11.9 326 8.6
2008-05-07 07:49:07 51°17.493 2°52.155 333 11.9 326 8.7
2008-05-07 07:49:11 51°17.504 2°52.143 333.1 11.9 325 8.6
2008-05-07 07:49:17 51°17.521 2°52.125 332.6 11.9 326 8.6
2008-05-07 07:49:22 51°17.534 2°52.11 332.5 11.9 325 8.5
2008-05-07 07:49:27 51°17.548 2°52.095 332.5 11.8 325 8.7
2008-05-07 07:49:31 51°17.558 2°52.083 332.5 11.9 324 8.7
2008-05-07 07:49:37 51°17.574 2°52.064 331.9 11.9 323 8.8
2008-05-07 07:49:42 51°17.587 2°52.047 330.4 11.9 321 8.8
2008-05-07 07:49:47 51°17.6 2°52.031 329 11.9 321 8.5
2008-05-07 07:49:52 51°17.613 2°52.013 328 12 320 8.6
2008-05-07 07:49:57 51°17.625 2°51.996 327.2 12 320 8.7
2008-05-07 07:50:02 51°17.638 2°51.978 326.5 12 318 8.7
2008-05-07 07:50:07 51°17.65 2°51.961 326 12 319 8.6
2008-05-07 07:50:12 51°17.663 2°51.943 325.6 12 318 8.6
2008-05-07 07:50:17 51°17.675 2°51.926 325.3 12 319 8.6
2008-05-07 07:50:22 51°17.688 2°51.908 325.5 12.1 318 8.5
2008-05-07 07:50:27 51°17.7 2°51.89 325.8 12 318 8.3
2008-05-07 07:50:32 51°17.712 2°51.872 325.7 12 318 8.4
2008-05-07 07:50:37 51°17.725 2°51.854 325.5 12 317 8.3
2008-05-07 07:50:42 51°17.737 2°51.837 325.2 12 318 8.3
2008-05-07 07:50:47 51°17.75 2°51.818 325.3 12.1 317 8.2
2008-05-07 07:50:52 51°17.762 2°51.8 325.2 12.1 318 8.3
2008-05-07 07:50:57 51°17.774 2°51.782 325.2 12.1 317 8.5
2008-05-07 07:51:02 51°17.787 2°51.765 325.7 12 320 8.3
2008-05-07 07:51:07 51°17.8 2°51.748 326.5 12.1 319 8.3
2008-05-07 07:51:12 51°17.813 2°51.731 327.4 12 321 8.3
2008-05-07 07:51:17 51°17.825 2°51.714 328 12 320 8.4
2008-05-07 07:51:22 51°17.838 2°51.697 328.3 12 321 8.4
2008-05-07 07:51:27 51°17.851 2°51.68 328.7 12.1 320 8.3
2008-05-07 07:51:32 51°17.864 2°51.663 328.7 12.1 321 8.4
2008-05-07 07:51:37 51°17.877 2°51.646 329.1 12.2 321 8.4
2008-05-07 07:51:42 51°17.89 2°51.629 329.3 12.1 321 8.5
2008-05-07 07:51:47 51°17.903 2°51.612 329.3 12.1 320 8.6
2008-05-07 07:51:51 51°17.913 2°51.599 329 12.1 321 8.5
2008-05-07 07:51:57 51°17.929 2°51.578 328.9 12.2 321 8.7
2008-05-07 07:52:02 51°17.942 2°51.561 329 12.2 321 8.8
2008-05-07 07:52:07 51°17.955 2°51.544 329.4 12.2 321 8.7
2008-05-07 07:52:12 51°17.968 2°51.526 329.4 12.2 320 8.9
2008-05-07 07:52:17 51°17.981 2°51.509 329.2 12.2 320 8.9
2008-05-07 07:52:22 51°17.994 2°51.492 328.9 12.2 320 9.1
2008-05-07 07:52:27 51°18.008 2°51.474 329.3 12.3 321 8.9
2008-05-07 07:52:32 51°18.021 2°51.457 329.4 12.3 320 9.2
2008-05-07 07:52:37 51°18.034 2°51.44 329.4 12.3 320 9.2
2008-05-07 07:52:42 51°18.047 2°51.422 329.2 12.3 320 9.4
2008-05-07 07:52:47 51°18.06 2°51.405 329.2 12.4 320 9.4
2008-05-07 07:52:52 51°18.073 2°51.387 329.1 12.4 320 9.7
2008-05-07 07:52:57 51°18.087 2°51.369 329 12.4 320 9.5
2008-05-07 07:53:02 51°18.1 2°51.352 329.1 12.4 320 9.8
2008-05-07 07:53:06 51°18.11 2°51.338 329.4 12.4 320 9.7
2008-05-07 07:53:12 51°18.126 2°51.317 329.4 12.4 320 10
2008-05-07 07:53:17 51°18.139 2°51.299 329.2 12.4 320 10.1
2008-05-07 07:53:22 51°18.152 2°51.281 329.2 12.4 319 10.1
2008-05-07 07:53:27 51°18.165 2°51.263 329.3 12.4 319 10.3
2008-05-07 07:53:31 51°18.176 2°51.248 328.9 12.5 319 10.4
2008-05-07 07:53:37 51°18.191 2°51.227 328.7 12.4 320 10.6
2008-05-07 07:53:42 51°18.205 2°51.21 329 12.4 322 10.5
2008-05-07 07:53:47 51°18.218 2°51.193 330.4 12.4 322 10.8
2008-05-07 07:53:52 51°18.232 2°51.177 331.6 12.3 323 10.8
2008-05-07 07:53:57 51°18.246 2°51.162 332.7 12.2 326 10.9
2008-05-07 07:54:02 51°18.261 2°51.147 334.7 12.2 328 11.1
2008-05-07 07:54:07 51°18.275 2°51.133 336.8 12.2 328 11.1
2008-05-07 07:54:12 51°18.29 2°51.121 338.6 11.9 331 11.1
2008-05-07 07:54:17 51°18.303 2°51.109 341.1 11.3 332 11.3
2008-05-07 07:54:22 51°18.316 2°51.099 343.1 10.6 334 11.3
2008-05-07 07:54:27 51°18.329 2°51.089 344.6 10.2 334 11.4
2008-05-07 07:54:32 51°18.34 2°51.08 346.6 9.2 334 11.5
2008-05-07 07:54:37 51°18.351 2°51.073 347.4 8.3 335 11.6
2008-05-07 07:54:42 51°18.36 2°51.066 349.3 7.5 335 11.7
2008-05-07 07:54:47 51°18.368 2°51.06 352.2 6.8 336 11.7
2008-05-07 07:54:52 51°18.376 2°51.055 353.9 6.2 336 11.8
2008-05-07 07:54:57 51°18.383 2°51.05 355.9 5.6 336 11.9
2008-05-07 07:55:02 51°18.39 2°51.045 357.5 5.2 336 11.9
2008-05-07 07:55:07 51°18.396 2°51.041 358.7 4.8 335 12
2008-05-07 07:55:12 51°18.401 2°51.037 359.6 4.4 335 12
2008-05-07 07:55:17 51°18.406 2°51.033 0.6 4.1 334 12.1
2008-05-07 07:55:22 51°18.411 2°51.029 1.4 3.8 334 12.1
2008-05-07 07:55:27 51°18.415 2°51.026 2.3 3.6 334 12
2008-05-07 07:55:32 51°18.419 2°51.022 3.3 3.3 333 12
2008-05-07 07:55:37 51°18.423 2°51.019 4 3.1 330 12
2008-05-07 07:55:42 51°18.426 2°51.015 4.6 2.9 330 12
2008-05-07 07:55:47 51°18.429 2°51.012 5.1 2.6 327 12.1
2008-05-07 07:55:51 51°18.431 2°51.01 6 2.3 322 12.2
2008-05-07 07:55:57 51°18.434 2°51.006 7.8 1.9 318 12.2
2008-05-07 07:56:02 51°18.435 2°51.003 10.1 1.7 308 12.2
2008-05-07 07:56:07 51°18.436 2°51.001 13.3 1.5 302 12.2
2008-05-07 07:56:12 51°18.437 2°50.998 16.7 1.4 297 12.1
2008-05-07 07:56:17 51°18.438 2°50.995 20 1.3 295 12.1
2008-05-07 07:56:22 51°18.438 2°50.993 22.6 1.3 291 12.1
2008-05-07 07:56:27 51°18.439 2°50.99 24.8 1.2 289 12.1
2008-05-07 07:56:32 51°18.439 2°50.988 26.2 1.2 285 12.2
2008-05-07 07:56:37 51°18.44 2°50.985 27.2 1.2 283 12.2
2008-05-07 07:56:42 51°18.44 2°50.982 28.3 1.2 282 12.2
2008-05-07 07:56:47 51°18.44 2°50.98 28.8 1.2 281 12.1
2008-05-07 07:56:52 51°18.441 2°50.977 29.1 1.2 277 12.2
2008-05-07 07:56:57 51°18.441 2°50.975 29.3 1.2 276 12.2
2008-05-07 07:57:02 51°18.441 2°50.972 29.4 1.2 273 12.2
2008-05-07 07:57:07 51°18.441 2°50.97 29.5 1.2 271 12.2
2008-05-07 07:57:12 51°18.441 2°50.967 29.5 1.2 270 12.2
2008-05-07 07:57:17 51°18.441 2°50.964 29.5 1.2 268 12.3
2008-05-07 07:57:22 51°18.441 2°50.962 29.6 1.3 267 12.2
2008-05-07 07:57:27 51°18.441 2°50.959 29.5 1.3 266 12.2
2008-05-07 07:57:32 51°18.441 2°50.956 29.4 1.3 265 12.3
2008-05-07 07:57:37 51°18.44 2°50.953 29.3 1.3 263 12.3
2008-05-07 07:57:42 51°18.44 2°50.95 29.1 1.3 262 12.3
2008-05-07 07:57:47 51°18.44 2°50.947 28.9 1.4 260 12.2
2008-05-07 07:57:52 51°18.44 2°50.944 28.5 1.4 263 12.2
2008-05-07 07:57:57 51°18.439 2°50.941 28.2 1.3 266 12.2
2008-05-07 07:58:02 51°18.439 2°50.938 27.5 1.3 269 12.2
2008-05-07 07:58:07 51°18.44 2°50.935 26 1.3 273 12.2
2008-05-07 07:58:11 51°18.44 2°50.933 24.2 1.4 282 12.2
2008-05-07 07:58:17 51°18.441 2°50.929 21.6 1.5 292 12.2
2008-05-07 07:58:22 51°18.442 2°50.926 17.7 1.7 301 12.2
2008-05-07 07:58:27 51°18.444 2°50.922 12.6 2 305 12.3
2008-05-07 07:58:32 51°18.446 2°50.918 6.5 2.4 308 12.3
2008-05-07 07:58:37 51°18.448 2°50.912 359.3 2.9 308 12.3
2008-05-07 07:58:42 51°18.451 2°50.906 351.4 3.7 304 12.3
2008-05-07 07:58:47 51°18.454 2°50.898 343.6 4.2 304 12.3
2008-05-07 07:58:52 51°18.458 2°50.888 336.8 5 303 12.3
2008-05-07 07:58:57 51°18.462 2°50.876 329.3 5.8 298 12.2
2008-05-07 07:59:02 51°18.466 2°50.863 320.9 6.6 296 12.4
2008-05-07 07:59:07 51°18.47 2°50.848 316.4 7.3 293 12.3
2008-05-07 07:59:12 51°18.473 2°50.831 310.9 8 290 12.3
2008-05-07 07:59:17 51°18.477 2°50.812 305.8 8.5 286 12.4
2008-05-07 07:59:22 51°18.479 2°50.792 300.9 9.2 282 12.4
2008-05-07 07:59:27 51°18.481 2°50.771 296 9.5 279 12.3
2008-05-07 07:59:32 51°18.483 2°50.749 291.4 9.9 276 12.4
2008-05-07 07:59:37 51°18.483 2°50.726 286.7 10.3 272 12.5
2008-05-07 07:59:42 51°18.482 2°50.702 282.1 10.6 269 12.5
2008-05-07 07:59:47 51°18.481 2°50.678 277.2 10.9 265 12.5
2008-05-07 07:59:52 51°18.478 2°50.653 272.4 11.3 262 12.6
2008-05-07 07:59:57 51°18.476 2°50.628 268.5 11.6 261 12.5
2008-05-07 08:00:02 51°18.473 2°50.602 266.4 11.8 259 12.6
2008-05-07 08:00:07 51°18.47 2°50.576 265.3 11.9 261 12.6
2008-05-07 08:00:12 51°18.468 2°50.549 265.2 12.3 261 12.6
2008-05-07 08:00:17 51°18.465 2°50.521 265.3 12.7 260 12.6
2008-05-07 08:00:22 51°18.461 2°50.493 264.8 13 260 12.6
2008-05-07 08:00:27 51°18.458 2°50.463 264.3 13.4 260 12.7
2008-05-07 08:00:31 51°18.456 2°50.44 264.1 13.6 261 12.6
2008-05-07 08:00:37 51°18.452 2°50.404 264.5 13.9 260 12.6
2008-05-07 08:00:42 51°18.449 2°50.373 264.6 14 261 12.5
2008-05-07 08:00:47 51°18.446 2°50.342 264.8 14 261 12.6
2008-05-07 08:00:52 51°18.442 2°50.311 265 14.2 259 12.6
2008-05-07 08:00:57 51°18.439 2°50.28 263.9 14.3 261 12.5
2008-05-07 08:01:02 51°18.435 2°50.249 264.4 14.3 258 12.6
2008-05-07 08:01:07 51°18.432 2°50.218 263.5 14.3 261 12.6
2008-05-07 08:01:12 51°18.428 2°50.187 264.1 14.3 258 12.5
2008-05-07 08:01:17 51°18.423 2°50.156 262.8 14.3 257 12.5
2008-05-07 08:01:22 51°18.419 2°50.125 260.7 14.4 258 12.6
2008-05-07 08:01:27 51°18.413 2°50.094 260.8 14.4 256 12.6
2008-05-07 08:01:32 51°18.409 2°50.063 259.6 14.4 256 12.4
2008-05-07 08:01:37 51°18.403 2°50.032 259.4 14.5 255 12.3
2008-05-07 08:01:42 51°18.398 2°50.001 258.2 14.4 254 12.3
2008-05-07 08:01:47 51°18.391 2°49.971 257.2 14.4 252 12.4
2008-05-07 08:01:52 51°18.386 2°49.94 255.4 14.5 255 12.3
2008-05-07 08:01:57 51°18.38 2°49.909 256.2 14.5 253 12.2
2008-05-07 08:02:02 51°18.375 2°49.879 256.5 14.4 254 12.1
2008-05-07 08:02:07 51°18.369 2°49.848 256.6 14.4 253 12
2008-05-07 08:02:12 51°18.363 2°49.817 256.4 14.5 254 12
2008-05-07 08:02:17 51°18.357 2°49.787 256.4 14.4 253 11.8
2008-05-07 08:02:22 51°18.352 2°49.756 256.1 14.4 254 11.7
2008-05-07 08:02:27 51°18.346 2°49.726 256.3 14.4 253 11.7
2008-05-07 08:02:32 51°18.341 2°49.695 256.6 14.4 254 11.7
2008-05-07 08:02:37 51°18.335 2°49.665 256.6 14.3 253 11.4
2008-05-07 08:02:42 51°18.329 2°49.634 256.5 14.4 254 11.4
2008-05-07 08:02:47 51°18.323 2°49.604 256.1 14.3 254 11.1
2008-05-07 08:02:51 51°18.319 2°49.579 256.7 14.4 253 11.2
2008-05-07 08:02:57 51°18.312 2°49.543 256.3 14.3 254 11.2
2008-05-07 08:03:02 51°18.306 2°49.513 256.8 14.3 252 11
2008-05-07 08:03:07 51°18.3 2°49.483 255.4 14.2 253 10.9
2008-05-07 08:03:12 51°18.293 2°49.453 255.3 14.2 250 10.5
2008-05-07 08:03:17 51°18.287 2°49.423 253.7 14.2 252 10
2008-05-07 08:03:22 51°18.28 2°49.394 253.3 14.1 250 9.6
2008-05-07 08:03:27 51°18.274 2°49.364 253.5 14.1 251 9.8
2008-05-07 08:03:32 51°18.267 2°49.335 253.5 14.1 250 10
2008-05-07 08:03:37 51°18.261 2°49.305 253 14.1 250 10
2008-05-07 08:03:42 51°18.254 2°49.276 252.4 14.3 250 10
2008-05-07 08:03:47 51°18.248 2°49.246 252.6 14.2 251 9.9
2008-05-07 08:03:52 51°18.241 2°49.217 253.1 14.1 249 9.6
2008-05-07 08:03:57 51°18.234 2°49.188 252.5 14.1 251 9.7
2008-05-07 08:04:02 51°18.228 2°49.158 252.6 14.1 250 9.4
2008-05-07 08:04:07 51°18.222 2°49.128 253.1 14.1 252 9.5
2008-05-07 08:04:12 51°18.215 2°49.099 253.8 14.1 250 9.3
2008-05-07 08:04:17 51°18.209 2°49.07 253.3 14 251 8.9
2008-05-07 08:04:22 51°18.202 2°49.041 253.1 14 249 8.7
2008-05-07 08:04:27 51°18.196 2°49.012 252.7 13.9 252 8.5
2008-05-07 08:04:32 51°18.189 2°48.983 253.2 13.8 250 8.2
2008-05-07 08:04:37 51°18.184 2°48.954 252.7 13.7 252 8.1
2008-05-07 08:04:42 51°18.177 2°48.925 253.3 13.9 250 8.3
2008-05-07 08:04:47 51°18.171 2°48.896 253.1 13.9 253 8.6
2008-05-07 08:04:52 51°18.165 2°48.867 253.8 13.9 250 8.6
2008-05-07 08:04:57 51°18.159 2°48.838 253.6 13.9 252 8.8
2008-05-07 08:05:02 51°18.152 2°48.809 253.9 13.9 250 8.8
2008-05-07 08:05:07 51°18.146 2°48.78 253.7 13.9 251 8.7
2008-05-07 08:05:12 51°18.14 2°48.751 253.4 13.9 251 8.8
2008-05-07 08:05:17 51°18.134 2°48.721 253.5 13.9 251 8.7
2008-05-07 08:05:22 51°18.128 2°48.692 254 13.8 251 8.6
2008-05-07 08:05:27 51°18.121 2°48.664 253.9 13.8 250 8.6
2008-05-07 08:05:32 51°18.115 2°48.635 253.4 13.8 252 8.4
2008-05-07 08:05:37 51°18.109 2°48.606 253.6 13.8 251 8.4
2008-05-07 08:05:42 51°18.103 2°48.577 253.4 13.8 252 8.5
2008-05-07 08:05:47 51°18.097 2°48.548 253.9 13.8 251 8.7
2008-05-07 08:05:52 51°18.092 2°48.518 254.2 13.8 254 8.7
2008-05-07 08:05:57 51°18.086 2°48.489 255.4 13.8 252 8.7
2008-05-07 08:06:02 51°18.08 2°48.46 255.3 13.8 252 8.7
2008-05-07 08:06:07 51°18.074 2°48.431 254.4 13.8 252 8.7
2008-05-07 08:06:12 51°18.068 2°48.402 254.2 13.8 251 8.6
2008-05-07 08:06:17 51°18.063 2°48.373 254.1 13.8 253 8.5
2008-05-07 08:06:22 51°18.056 2°48.344 254.4 13.7 252 8
2008-05-07 08:06:27 51°18.051 2°48.315 254.2 13.6 252 8.2
2008-05-07 08:06:32 51°18.045 2°48.287 253.7 13.7 252 8.6
2008-05-07 08:06:37 51°18.039 2°48.258 253.9 13.7 252 8.6
2008-05-07 08:06:42 51°18.033 2°48.228 254.3 13.9 252 8.5
2008-05-07 08:06:46 51°18.029 2°48.205 254.7 13.8 253 8.3
2008-05-07 08:06:52 51°18.022 2°48.17 254.7 13.7 252 8.4
2008-05-07 08:06:57 51°18.017 2°48.141 254.8 13.7 254 8.3
2008-05-07 08:07:02 51°18.011 2°48.112 255.9 13.7 254 8.2
2008-05-07 08:07:07 51°18.007 2°48.083 256.9 13.6 255 8.1
2008-05-07 08:07:11 51°18.003 2°48.06 257.6 13.7 255 8
2008-05-07 08:07:17 51°17.997 2°48.024 258 13.6 256 8.1
2008-05-07 08:07:22 51°17.993 2°47.995 258.8 13.6 256 8.1
2008-05-07 08:07:27 51°17.988 2°47.966 259 13.7 256 8.4
2008-05-07 08:07:32 51°17.983 2°47.937 259 13.7 254 8.6
2008-05-07 08:07:37 51°17.979 2°47.907 258.1 13.7 257 8.7
2008-05-07 08:07:42 51°17.974 2°47.877 258.6 13.8 255 8.9
2008-05-07 08:07:47 51°17.969 2°47.848 258.8 13.8 256 9.1
2008-05-07 08:07:52 51°17.964 2°47.818 258.4 13.8 255 9.2
2008-05-07 08:07:57 51°17.96 2°47.789 258.3 13.7 256 9.3
2008-05-07 08:08:02 51°17.955 2°47.76 258.3 13.7 255 9.3
2008-05-07 08:08:07 51°17.95 2°47.73 258 13.7 255 9.3
2008-05-07 08:08:12 51°17.945 2°47.701 257.5 13.7 254 9.4
2008-05-07 08:08:17 51°17.939 2°47.672 257.6 13.7 254 9.6
2008-05-07 08:08:22 51°17.934 2°47.643 257 13.7 254 9.6
2008-05-07 08:08:27 51°17.928 2°47.614 256.6 13.6 252 9.5
2008-05-07 08:08:32 51°17.922 2°47.586 255.3 13.6 251 9.6
2008-05-07 08:08:37 51°17.916 2°47.557 254.6 13.6 251 9.8
2008-05-07 08:08:42 51°17.909 2°47.529 252.9 13.7 249 9.9
2008-05-07 08:08:46 51°17.904 2°47.506 251.8 13.7 251 10.1
2008-05-07 08:08:52 51°17.895 2°47.473 251.8 13.7 248 10.3
2008-05-07 08:08:57 51°17.889 2°47.444 251 13.7 250 10.3
2008-05-07 08:09:02 51°17.882 2°47.416 250.8 13.7 248 10.4
2008-05-07 08:09:07 51°17.875 2°47.388 250.3 13.6 249 10.5
2008-05-07 08:09:11 51°17.869 2°47.366 250.3 13.6 248 9.8
2008-05-07 08:09:17 51°17.861 2°47.333 250 13.6 248 9.7
2008-05-07 08:09:22 51°17.854 2°47.305 249.9 13.5 248 9.5
2008-05-07 08:09:27 51°17.847 2°47.277 250.3 13.4 248 9.5
2008-05-07 08:09:32 51°17.84 2°47.25 250.3 13.5 249 9.6
2008-05-07 08:09:37 51°17.833 2°47.222 250.3 13.5 248 9.5
2008-05-07 08:09:42 51°17.826 2°47.194 250.1 13.6 249 9.1
2008-05-07 08:09:47 51°17.819 2°47.166 250.2 13.6 248 8.7
2008-05-07 08:09:52 51°17.812 2°47.138 250.5 13.5 250 8.8
2008-05-07 08:09:57 51°17.805 2°47.111 251.1 13.4 248 9
2008-05-07 08:10:02 51°17.799 2°47.083 250.9 13.5 249 9.2
2008-05-07 08:10:07 51°17.791 2°47.055 250.4 13.7 248 9.5
2008-05-07 08:10:12 51°17.785 2°47.026 250.5 13.8 249 9.6
2008-05-07 08:10:17 51°17.778 2°46.998 250.9 13.6 249 9.8
2008-05-07 08:10:22 51°17.771 2°46.97 251.2 13.7 248 9.8
2008-05-07 08:10:27 51°17.764 2°46.941 250.6 13.7 249 9.7
2008-05-07 08:10:32 51°17.757 2°46.913 250.8 13.7 249 9.7
2008-05-07 08:10:37 51°17.751 2°46.885 251 13.7 249 9.7
2008-05-07 08:10:42 51°17.745 2°46.856 251.1 13.7 251 9.8
2008-05-07 08:10:47 51°17.738 2°46.828 252.7 13.7 250 10
2008-05-07 08:10:52 51°17.733 2°46.799 253.3 13.7 253 10.1
2008-05-07 08:10:57 51°17.726 2°46.77 254.4 13.7 250 10.2
2008-05-07 08:11:02 51°17.721 2°46.741 254.5 13.7 252 10.4
2008-05-07 08:11:07 51°17.714 2°46.712 254.7 13.8 251 10.8
2008-05-07 08:11:12 51°17.708 2°46.683 254.7 13.8 251 11.2
2008-05-07 08:11:17 51°17.7 2°46.655 253.1 13.8 247 11.5
2008-05-07 08:11:22 51°17.693 2°46.627 251 13.8 248 11.8
2008-05-07 08:11:27 51°17.685 2°46.599 250.6 13.8 245 12.2
2008-05-07 08:11:31 51°17.678 2°46.578 247.7 13.8 242 12.6
2008-05-07 08:11:37 51°17.667 2°46.546 245 13.8 242 12.9
2008-05-07 08:11:42 51°17.657 2°46.52 243.5 13.9 238 13
2008-05-07 08:11:47 51°17.646 2°46.494 240.8 13.8 237 13
2008-05-07 08:11:52 51°17.635 2°46.469 239.3 13.8 235 12.5
2008-05-07 08:11:57 51°17.624 2°46.444 236.4 13.8 234 12.7
2008-05-07 08:12:02 51°17.612 2°46.421 235 13.8 231 12.8
2008-05-07 08:12:07 51°17.6 2°46.396 233.4 13.8 232 13
2008-05-07 08:12:12 51°17.587 2°46.374 232.5 13.8 227 13.1
2008-05-07 08:12:17 51°17.574 2°46.352 229.3 13.8 227 13.4
2008-05-07 08:12:22 51°17.56 2°46.33 226.6 13.8 225 13.6
2008-05-07 08:12:27 51°17.547 2°46.309 225.5 13.8 225 13.6
2008-05-07 08:12:32 51°17.532 2°46.288 224.1 13.9 222 13.7
2008-05-07 08:12:37 51°17.519 2°46.266 222.7 13.8 225 13.8
2008-05-07 08:12:42 51°17.504 2°46.247 222.9 13.8 220 13.7
2008-05-07 08:12:47 51°17.49 2°46.225 221.3 13.9 223 13.6
2008-05-07 08:12:52 51°17.475 2°46.206 220.9 13.8 220 13.4
2008-05-07 08:12:57 51°17.46 2°46.187 219.8 13.8 220 13.3
2008-05-07 08:13:02 51°17.446 2°46.167 218.8 13.8 219 13.3
2008-05-07 08:13:07 51°17.431 2°46.148 218.4 13.8 218 12.5
2008-05-07 08:13:12 51°17.416 2°46.129 218.2 13.7 220 11.3
2008-05-07 08:13:17 51°17.401 2°46.111 218.5 13.7 217 12.2
2008-05-07 08:13:22 51°17.386 2°46.091 217.4 13.8 219 12.5
2008-05-07 08:13:27 51°17.371 2°46.072 218.2 13.7 219 12.4
2008-05-07 08:13:32 51°17.356 2°46.053 218.7 13.8 217 12.4
2008-05-07 08:13:37 51°17.341 2°46.034 217.9 13.7 219 11.6
2008-05-07 08:13:42 51°17.326 2°46.016 218.4 13.7 218 11.6
2008-05-07 08:13:47 51°17.311 2°45.996 218.6 13.7 219 11.7
2008-05-07 08:13:52 51°17.296 2°45.977 218.5 13.8 220 11.6
2008-05-07 08:13:57 51°17.282 2°45.957 219.2 13.8 220 11.8
2008-05-07 08:14:02 51°17.268 2°45.937 219.8 13.9 222 12.3
2008-05-07 08:14:07 51°17.253 2°45.917 221.3 13.9 221 12.7
2008-05-07 08:14:12 51°17.238 2°45.897 221.6 13.8 221 12.7
2008-05-07 08:14:17 51°17.223 2°45.877 220.7 13.9 219 12.6
2008-05-07 08:14:22 51°17.209 2°45.857 219.8 13.8 221 12.7
2008-05-07 08:14:27 51°17.194 2°45.837 220.3 13.8 219 12.8
2008-05-07 08:14:32 51°17.18 2°45.818 220 13.8 221 12.7
2008-05-07 08:14:37 51°17.165 2°45.799 220.1 13.7 219 12.7
2008-05-07 08:14:42 51°17.15 2°45.78 219.5 13.8 219 11.5
2008-05-07 08:14:47 51°17.136 2°45.76 219.1 13.7 220 11.6
2008-05-07 08:14:52 51°17.121 2°45.741 220.1 13.7 219 11.7
2008-05-07 08:14:57 51°17.106 2°45.721 219.9 13.7 220 11.7
2008-05-07 08:15:02 51°17.092 2°45.701 219.8 13.7 220 11.3
2008-05-07 08:15:07 51°17.077 2°45.682 220.5 13.7 219 11.9
2008-05-07 08:15:12 51°17.063 2°45.663 220 13.8 219 11.9
2008-05-07 08:15:17 51°17.048 2°45.643 219.8 13.7 221 12
2008-05-07 08:15:22 51°17.033 2°45.624 220.5 13.8 219 12.1
2008-05-07 08:15:27 51°17.019 2°45.603 220.5 13.8 223 11.4
2008-05-07 08:15:32 51°17.004 2°45.585 222.1 13.8 217 11.1
2008-05-07 08:15:37 51°16.99 2°45.564 220.5 13.7 221 10.7
2008-05-07 08:15:42 51°16.975 2°45.546 220.5 13.7 218 10.4
2008-05-07 08:15:47 51°16.96 2°45.526 220.5 13.7 221 10.3
2008-05-07 08:15:52 51°16.946 2°45.507 220.5 13.7 220 10.1
2008-05-07 08:15:57 51°16.931 2°45.487 220.9 13.7 220 9.8
2008-05-07 08:16:02 51°16.916 2°45.468 220.8 13.7 219 10
2008-05-07 08:16:07 51°16.902 2°45.449 220.2 13.7 220 10.3
2008-05-07 08:16:12 51°16.887 2°45.43 220.2 13.8 220 11.3
2008-05-07 08:16:17 51°16.872 2°45.41 220.1 13.9 220 11.5
2008-05-07 08:16:22 51°16.858 2°45.39 220.1 13.8 221 11.2
2008-05-07 08:16:27 51°16.843 2°45.371 221.3 13.8 219 11.2
2008-05-07 08:16:31 51°16.831 2°45.355 220.8 13.7 221 11.3
2008-05-07 08:16:37 51°16.814 2°45.332 220.5 13.7 219 11.3
2008-05-07 08:16:42 51°16.799 2°45.312 220.2 13.7 221 11.4
2008-05-07 08:16:47 51°16.784 2°45.293 220.7 13.7 219 11.7
2008-05-07 08:16:52 51°16.77 2°45.273 220.5 13.6 220 10.9
2008-05-07 08:16:57 51°16.756 2°45.254 220.4 13.6 220 10.3
2008-05-07 08:17:02 51°16.741 2°45.234 221 13.5 220 9.8
2008-05-07 08:17:07 51°16.727 2°45.216 221.1 13.5 219 9.9
2008-05-07 08:17:12 51°16.712 2°45.196 220.7 13.6 220 9.7
2008-05-07 08:17:17 51°16.698 2°45.177 221.1 13.6 219 9.6
2008-05-07 08:17:22 51°16.684 2°45.157 220.7 13.5 220 9.7
2008-05-07 08:17:27 51°16.669 2°45.138 221.3 13.5 220 9.5
2008-05-07 08:17:32 51°16.655 2°45.119 221.6 13.6 220 9.3
2008-05-07 08:17:37 51°16.64 2°45.099 221.3 13.6 220 9.1
2008-05-07 08:17:42 51°16.626 2°45.08 221.4 13.5 220 8.6
2008-05-07 08:17:47 51°16.612 2°45.061 221.2 13.4 220 8
2008-05-07 08:17:52 51°16.598 2°45.042 221 13.5 220 9.3
2008-05-07 08:17:57 51°16.583 2°45.022 220.8 13.5 221 10.1
2008-05-07 08:18:02 51°16.569 2°45.003 221.3 13.7 220 10.1
2008-05-07 08:18:07 51°16.554 2°44.983 221.3 13.8 220 10
2008-05-07 08:18:12 51°16.54 2°44.963 221.5 13.7 221 9.6
2008-05-07 08:18:17 51°16.525 2°44.944 221.8 13.5 221 9.7
2008-05-07 08:18:22 51°16.511 2°44.925 221.4 13.5 220 9.5
2008-05-07 08:18:27 51°16.497 2°44.905 221.3 13.6 220 9.6
2008-05-07 08:18:31 51°16.486 2°44.889 221.7 13.4 222 9.1
2008-05-07 08:18:37 51°16.468 2°44.867 221.9 13.5 219 8.8
2008-05-07 08:18:42 51°16.455 2°44.847 220.5 13.4 222 8.7
2008-05-07 08:18:47 51°16.44 2°44.828 221.8 13.3 219 8.8
2008-05-07 08:18:52 51°16.427 2°44.809 221.3 13.3 222 8.8
2008-05-07 08:18:57 51°16.413 2°44.79 221.4 13.4 221 8.9
2008-05-07 08:19:02 51°16.398 2°44.77 222 13.4 222 8.4
2008-05-07 08:19:07 51°16.384 2°44.751 222.4 13.4 221 8.9
2008-05-07 08:19:12 51°16.37 2°44.731 222.2 13.5 221 9.2
2008-05-07 08:19:17 51°16.356 2°44.711 222.2 13.5 221 9.4
2008-05-07 08:19:22 51°16.342 2°44.692 222 13.5 220 9.3
2008-05-07 08:19:27 51°16.328 2°44.673 221.7 13.5 220 9.4
2008-05-07 08:19:32 51°16.314 2°44.653 221.3 13.5 222 9.3
2008-05-07 08:19:37 51°16.299 2°44.634 222 13.5 219 9.4
2008-05-07 08:19:42 51°16.286 2°44.613 221.6 13.5 223 9.3
2008-05-07 08:19:47 51°16.271 2°44.594 222.7 13.5 221 9.3
2008-05-07 08:19:52 51°16.258 2°44.573 223.2 13.5 224 9.4
2008-05-07 08:19:57 51°16.244 2°44.553 224.3 13.6 222 9.4
2008-05-07 08:20:02 51°16.231 2°44.532 224.5 13.5 225 9.4
2008-05-07 08:20:07 51°16.217 2°44.511 225.6 13.6 223 9.4
2008-05-07 08:20:12 51°16.204 2°44.49 225.7 13.5 225 9.3
2008-05-07 08:20:17 51°16.189 2°44.47 225.9 13.6 222 9.3
2008-05-07 08:20:22 51°16.176 2°44.449 224.9 13.5 225 9.4
2008-05-07 08:20:27 51°16.163 2°44.428 225.4 13.6 223 9.3
2008-05-07 08:20:32 51°16.149 2°44.408 225.7 13.5 224 9.1
2008-05-07 08:20:37 51°16.135 2°44.387 225.4 13.6 223 9.2
2008-05-07 08:20:42 51°16.122 2°44.367 225.2 13.6 223 9.5
2008-05-07 08:20:47 51°16.108 2°44.346 224.9 13.5 224 9.5
2008-05-07 08:20:51 51°16.097 2°44.33 225.3 13.6 223 9.6
2008-05-07 08:20:57 51°16.08 2°44.305 224.9 13.6 224 9.5
2008-05-07 08:21:02 51°16.067 2°44.284 225 13.6 224 9.5
2008-05-07 08:21:07 51°16.053 2°44.264 225.4 13.6 223 9.6
2008-05-07 08:21:12 51°16.039 2°44.243 225 13.6 224 9.5
2008-05-07 08:21:17 51°16.026 2°44.221 225.2 13.6 225 9.4
2008-05-07 08:21:22 51°16.012 2°44.201 225.6 13.6 223 9.4
2008-05-07 08:21:27 51°15.999 2°44.181 225 13.6 223 9.6
2008-05-07 08:21:32 51°15.984 2°44.161 224.2 13.6 220 9.6
2008-05-07 08:21:37 51°15.97 2°44.141 222.7 13.7 221 9.6
2008-05-07 08:21:42 51°15.956 2°44.122 221.9 13.6 221 9.6
2008-05-07 08:21:47 51°15.941 2°44.103 221.6 13.6 219 9.6
2008-05-07 08:21:52 51°15.927 2°44.083 220.4 13.6 220 9.7
2008-05-07 08:21:57 51°15.912 2°44.064 220.8 13.6 220 9.5
2008-05-07 08:22:02 51°15.897 2°44.045 220.6 13.6 218 9.5
2008-05-07 08:22:07 51°15.883 2°44.026 219.7 13.6 220 9.8
2008-05-07 08:22:12 51°15.868 2°44.007 220.5 13.6 219 9.8
2008-05-07 08:22:17 51°15.854 2°43.988 220 13.6 221 9.8
2008-05-07 08:22:22 51°15.839 2°43.969 220.4 13.6 219 9.8
2008-05-07 08:22:27 51°15.825 2°43.949 220.2 13.6 220 9.8
2008-05-07 08:22:32 51°15.81 2°43.93 220.5 13.6 221 9.8
2008-05-07 08:22:37 51°15.796 2°43.91 221.3 13.7 221 10
2008-05-07 08:22:42 51°15.783 2°43.889 222.2 13.6 224 9.9
2008-05-07 08:22:47 51°15.768 2°43.869 224 13.7 221 10.1
2008-05-07 08:22:51 51°15.758 2°43.852 223.3 13.6 225 10.1
2008-05-07 08:22:57 51°15.741 2°43.827 224.2 13.7 222 10.1
2008-05-07 08:23:02 51°15.727 2°43.806 223.8 13.7 224 10.1
2008-05-07 08:23:07 51°15.713 2°43.786 224.2 13.5 224 10.1
2008-05-07 08:23:12 51°15.699 2°43.766 224.5 13.7 221 10.2
2008-05-07 08:23:17 51°15.685 2°43.745 222.8 13.7 224 9.9
2008-05-07 08:23:22 51°15.671 2°43.726 223.4 13.6 220 10.1
2008-05-07 08:23:27 51°15.657 2°43.705 222.3 13.7 222 10
2008-05-07 08:23:32 51°15.643 2°43.685 222.5 13.7 222 10.2
2008-05-07 08:23:37 51°15.628 2°43.665 222.7 13.7 221 10.5
2008-05-07 08:23:42 51°15.614 2°43.646 221.9 13.7 220 10.5
2008-05-07 08:23:47 51°15.6 2°43.626 221.2 13.6 221 10.9
2008-05-07 08:23:52 51°15.585 2°43.607 221 13.8 219 10.9
2008-05-07 08:23:57 51°15.571 2°43.585 220.9 13.8 224 11
2008-05-07 08:24:02 51°15.557 2°43.566 223.2 13.7 220 11.3
2008-05-07 08:24:07 51°15.543 2°43.545 222.5 13.7 223 11.2
2008-05-07 08:24:12 51°15.529 2°43.524 223.1 13.7 224 11.3
2008-05-07 08:24:17 51°15.516 2°43.503 223.9 13.7 224 11.5
2008-05-07 08:24:22 51°15.502 2°43.482 223.9 13.7 224 11.4
2008-05-07 08:24:27 51°15.488 2°43.461 224.1 13.7 224 11
2008-05-07 08:24:32 51°15.474 2°43.44 224.2 13.7 224 11.1
2008-05-07 08:24:37 51°15.46 2°43.42 224 13.7 223 11.5
2008-05-07 08:24:42 51°15.447 2°43.399 223.4 13.7 223 11.8
2008-05-07 08:24:47 51°15.433 2°43.378 223.2 13.7 224 11.8
2008-05-07 08:24:52 51°15.419 2°43.357 223.9 13.8 223 11.9
2008-05-07 08:24:57 51°15.405 2°43.335 223.9 13.8 225 11.9
2008-05-07 08:25:02 51°15.392 2°43.315 224.5 13.7 223 11.9
2008-05-07 08:25:07 51°15.378 2°43.293 224.3 13.7 224 12.1
2008-05-07 08:25:11 51°15.367 2°43.277 224.2 13.7 223 12.1
2008-05-07 08:25:17 51°15.351 2°43.251 224.2 13.7 224 11.9
2008-05-07 08:25:22 51°15.336 2°43.231 224.2 13.7 221 10.3
2008-05-07 08:25:27 51°15.323 2°43.21 223.1 13.7 224 11.7
2008-05-07 08:25:32 51°15.308 2°43.191 222.8 13.8 221 11.9
2008-05-07 08:25:37 51°15.294 2°43.17 221.7 13.7 223 12
2008-05-07 08:25:42 51°15.279 2°43.151 221.5 13.8 219 11.9
2008-05-07 08:25:47 51°15.265 2°43.13 219.8 13.7 222 12
2008-05-07 08:25:52 51°15.251 2°43.111 220.5 13.7 221 11.6
2008-05-07 08:25:57 51°15.236 2°43.092 220.3 13.7 220 10.6
2008-05-07 08:26:02 51°15.222 2°43.071 219.6 13.7 221 12
2008-05-07 08:26:07 51°15.208 2°43.052 220.2 13.7 221 12.2
2008-05-07 08:26:12 51°15.193 2°43.032 220.3 13.7 220 12.1
2008-05-07 08:26:17 51°15.179 2°43.012 219.8 13.8 221 12.2
2008-05-07 08:26:22 51°15.165 2°42.991 220 13.7 222 12.2
2008-05-07 08:26:27 51°15.15 2°42.972 221.2 13.7 220 12.1
2008-05-07 08:26:32 51°15.136 2°42.951 220.1 13.7 222 12.1
2008-05-07 08:26:37 51°15.122 2°42.932 220.5 13.7 221 12.1
2008-05-07 08:26:42 51°15.107 2°42.912 220.7 13.7 222 12
2008-05-07 08:26:47 51°15.093 2°42.892 220.2 13.7 221 12.1
2008-05-07 08:26:52 51°15.079 2°42.872 220.5 13.7 221 12
2008-05-07 08:26:57 51°15.065 2°42.852 220.4 13.7 222 12.1
2008-05-07 08:27:02 51°15.05 2°42.832 220.9 13.7 221 12.1
2008-05-07 08:27:07 51°15.036 2°42.812 220.5 13.7 221 12
2008-05-07 08:27:12 51°15.022 2°42.792 220.2 13.7 221 12
2008-05-07 08:27:17 51°15.008 2°42.771 220.6 13.7 222 12
2008-05-07 08:27:22 51°14.993 2°42.752 220.6 13.7 220 11.9
2008-05-07 08:27:27 51°14.979 2°42.731 219.8 13.7 224 10.3
2008-05-07 08:27:32 51°14.965 2°42.711 221.4 13.6 221 11.6
2008-05-07 08:27:37 51°14.951 2°42.69 221.5 13.8 222 11.7
2008-05-07 08:27:42 51°14.937 2°42.67 220.8 13.7 222 11.7
2008-05-07 08:27:47 51°14.923 2°42.65 221.3 13.7 222 12
2008-05-07 08:27:52 51°14.909 2°42.629 221 13.7 223 12
2008-05-07 08:27:57 51°14.895 2°42.609 221.3 13.8 222 12.2
2008-05-07 08:28:02 51°14.881 2°42.588 221.4 13.7 223 12.2
2008-05-07 08:28:07 51°14.867 2°42.568 221.5 13.7 222 12.2
2008-05-07 08:28:12 51°14.852 2°42.547 221.3 13.8 222 11.7
2008-05-07 08:28:17 51°14.839 2°42.526 221.3 13.7 224 11.8
2008-05-07 08:28:22 51°14.824 2°42.506 221.9 13.8 221 12.1
2008-05-07 08:28:27 51°14.811 2°42.485 221.2 13.8 223 12
2008-05-07 08:28:32 51°14.796 2°42.465 221.4 13.7 222 12.2
2008-05-07 08:28:37 51°14.782 2°42.444 221.4 13.8 223 12.2
2008-05-07 08:28:42 51°14.769 2°42.423 221.4 13.7 223 11.1
2008-05-07 08:28:47 51°14.755 2°42.402 221.8 13.7 224 12.1
2008-05-07 08:28:52 51°14.741 2°42.381 222.3 13.8 223 12.4
2008-05-07 08:28:57 51°14.727 2°42.36 222.3 13.8 223 12.6
2008-05-07 08:29:02 51°14.713 2°42.339 222 13.9 223 12.6
2008-05-07 08:29:07 51°14.699 2°42.318 221.4 13.8 224 12.7
2008-05-07 08:29:12 51°14.685 2°42.298 222.1 13.8 223 12.8
2008-05-07 08:29:17 51°14.671 2°42.277 222 13.8 223 12.9
2008-05-07 08:29:22 51°14.657 2°42.256 221.5 13.7 223 11.3
2008-05-07 08:29:27 51°14.643 2°42.235 221.8 13.8 223 12.7
2008-05-07 08:29:32 51°14.629 2°42.214 221.7 13.8 224 13
2008-05-07 08:29:37 51°14.615 2°42.193 222 13.8 223 13
2008-05-07 08:29:42 51°14.602 2°42.172 221.9 13.9 224 13.1
2008-05-07 08:29:47 51°14.588 2°42.151 222.4 13.9 223 13.2
2008-05-07 08:29:52 51°14.574 2°42.13 222.7 13.8 224 13.3
2008-05-07 08:29:57 51°14.56 2°42.109 222 13.8 222 13.4
2008-05-07 08:30:02 51°14.546 2°42.088 221.5 13.8 223 13.4
2008-05-07 08:30:07 51°14.532 2°42.067 221 13.8 224 13.6
2008-05-07 08:30:12 51°14.518 2°42.046 221.8 13.8 224 12
2008-05-07 08:30:17 51°14.504 2°42.025 221.7 13.8 223 13.5
2008-05-07 08:30:22 51°14.49 2°42.004 221.6 13.8 223 13.6
2008-05-07 08:30:27 51°14.476 2°41.984 222 13.9 222 13.7
2008-05-07 08:30:32 51°14.462 2°41.963 221 13.9 224 13.8
2008-05-07 08:30:37 51°14.448 2°41.941 221.1 13.8 224 14
2008-05-07 08:30:42 51°14.434 2°41.921 222 13.8 223 14.2
2008-05-07 08:30:47 51°14.42 2°41.899 221.9 13.8 224 14.1
2008-05-07 08:30:52 51°14.406 2°41.878 222.1 13.8 223 14.2
2008-05-07 08:30:57 51°14.392 2°41.857 221.8 13.9 224 14.4
2008-05-07 08:31:02 51°14.379 2°41.835 221.8 13.8 225 14.4
2008-05-07 08:31:07 51°14.364 2°41.815 222.7 13.9 222 14.5
2008-05-07 08:31:12 51°14.351 2°41.792 222 13.9 226 14.6
2008-05-07 08:31:17 51°14.337 2°41.771 223.3 13.9 225 14.6
2008-05-07 08:31:22 51°14.324 2°41.748 224.2 13.9 226 14.5
2008-05-07 08:31:27 51°14.311 2°41.727 224.5 13.9 226 13.8
2008-05-07 08:31:32 51°14.298 2°41.704 224.5 13.9 227 14.4
2008-05-07 08:31:37 51°14.284 2°41.682 225.2 13.9 227 14.6
2008-05-07 08:31:42 51°14.271 2°41.659 225.9 13.9 226 14.7
2008-05-07 08:31:47 51°14.257 2°41.637 225.6 14 225 14.6
2008-05-07 08:31:52 51°14.245 2°41.614 224.7 13.9 228 14.8
2008-05-07 08:31:57 51°14.23 2°41.593 225.4 14 223 14.8
2008-05-07 08:32:02 51°14.218 2°41.57 223.9 14 229 14.7
2008-05-07 08:32:07 51°14.204 2°41.549 225.1 13.9 225 14.7
2008-05-07 08:32:12 51°14.19 2°41.526 224.8 13.9 225 14.7
2008-05-07 08:32:17 51°14.177 2°41.504 223.5 13.9 226 14.8
2008-05-07 08:32:22 51°14.163 2°41.483 224.1 14 225 14.7
2008-05-07 08:32:27 51°14.15 2°41.46 223.8 13.9 226 14.8
2008-05-07 08:32:32 51°14.136 2°41.438 224.2 13.9 225 14.8
2008-05-07 08:32:37 51°14.123 2°41.416 224 14 226 14.8
2008-05-07 08:32:42 51°14.109 2°41.394 224.2 14 225 14.9
2008-05-07 08:32:47 51°14.096 2°41.371 224.2 14 227 15
2008-05-07 08:32:52 51°14.082 2°41.35 225 14 224 14.9
2008-05-07 08:32:57 51°14.069 2°41.327 223.8 14 227 14.9
2008-05-07 08:33:02 51°14.055 2°41.306 224.2 14.1 224 14.7
2008-05-07 08:33:07 51°14.042 2°41.283 223.9 14 227 14.8
2008-05-07 08:33:12 51°14.028 2°41.261 224.2 13.9 225 14.8
2008-05-07 08:33:17 51°14.015 2°41.238 224.3 14 227 14.9
2008-05-07 08:33:22 51°14.001 2°41.216 224.5 14 226 14.9
2008-05-07 08:33:27 51°13.987 2°41.195 224.4 13.9 225 14.9
2008-05-07 08:33:32 51°13.974 2°41.172 223.5 13.9 225 14.9
2008-05-07 08:33:37 51°13.96 2°41.151 223.4 14 224 14.9
2008-05-07 08:33:42 51°13.946 2°41.13 222.7 14 224 14.9
2008-05-07 08:33:47 51°13.932 2°41.108 221.8 14 224 14.9
2008-05-07 08:33:52 51°13.918 2°41.087 221.6 14 224 14.9
2008-05-07 08:33:57 51°13.904 2°41.065 221.8 14 224 14.9
2008-05-07 08:34:02 51°13.89 2°41.043 222.2 14.1 225 14.8
2008-05-07 08:34:07 51°13.877 2°41.021 222.7 14 227 14.8
2008-05-07 08:34:12 51°13.862 2°41 224.1 14 223 14.6
2008-05-07 08:34:17 51°13.849 2°40.977 222.6 14.1 225 14.9
2008-05-07 08:34:22 51°13.835 2°40.957 222.5 14 222 14.7
2008-05-07 08:34:27 51°13.82 2°40.935 221.4 14 223 14.7
2008-05-07 08:34:31 51°13.809 2°40.918 220.9 14.1 224 14.8
2008-05-07 08:34:37 51°13.792 2°40.892 221.3 14.1 225 14.9
2008-05-07 08:34:42 51°13.779 2°40.869 222 14.1 225 15.1
2008-05-07 08:34:47 51°13.764 2°40.848 223.1 14.1 223 14.7
2008-05-07 08:34:52 51°13.75 2°40.826 222.3 14.1 225 14.5
2008-05-07 08:34:57 51°13.737 2°40.804 222 14.1 224 14.7
2008-05-07 08:35:02 51°13.723 2°40.781 223.1 14.1 226 14.7
2008-05-07 08:35:07 51°13.709 2°40.76 223.8 14.1 224 14.8
2008-05-07 08:35:12 51°13.695 2°40.737 222.8 14.2 226 14.7
2008-05-07 08:35:17 51°13.681 2°40.715 223.2 14.1 225 14.9
2008-05-07 08:35:22 51°13.668 2°40.692 223.5 14.1 226 15.1
2008-05-07 08:35:27 51°13.654 2°40.67 223.7 14.1 225 15.1
2008-05-07 08:35:32 51°13.641 2°40.648 223.7 14.1 226 15.3
2008-05-07 08:35:37 51°13.627 2°40.626 224.2 14.1 225 15.2
2008-05-07 08:35:42 51°13.613 2°40.604 223.5 14.1 225 15.1
2008-05-07 08:35:47 51°13.599 2°40.583 222.8 14 224 14.6
2008-05-07 08:35:52 51°13.585 2°40.561 221.6 14 223 14.4
2008-05-07 08:35:57 51°13.57 2°40.54 220.9 14.1 223 14.4
2008-05-07 08:36:02 51°13.556 2°40.519 220.6 14 223 14.5
2008-05-07 08:36:07 51°13.542 2°40.498 220.3 14 223 14.3
2008-05-07 08:36:12 51°13.527 2°40.477 219.8 14 222 14.5
2008-05-07 08:36:17 51°13.513 2°40.456 219.7 14.1 222 14.2
2008-05-07 08:36:22 51°13.499 2°40.435 219.8 14 222 14.1
2008-05-07 08:36:27 51°13.484 2°40.414 219.8 14 223 14.1
2008-05-07 08:36:32 51°13.47 2°40.393 220 14.1 223 14.2
2008-05-07 08:36:37 51°13.456 2°40.372 220.2 14.1 223 14
2008-05-07 08:36:42 51°13.442 2°40.35 220.4 14.1 225 14
2008-05-07 08:36:47 51°13.428 2°40.328 221.9 14 225 14
2008-05-07 08:36:52 51°13.414 2°40.307 222.5 14 224 14
2008-05-07 08:36:57 51°13.401 2°40.284 223.3 14 225 13.8
2008-05-07 08:37:02 51°13.387 2°40.262 223.8 14 226 12.9
2008-05-07 08:37:07 51°13.374 2°40.24 223.8 14 227 13.5
2008-05-07 08:37:12 51°13.36 2°40.218 224.1 14 224 13.8
2008-05-07 08:37:17 51°13.346 2°40.196 223.8 14 226 13.6
2008-05-07 08:37:22 51°13.332 2°40.175 223.5 14 225 13.7
2008-05-07 08:37:27 51°13.319 2°40.152 223.3 14 226 13.8
2008-05-07 08:37:32 51°13.305 2°40.131 223.3 14 225 13.8
2008-05-07 08:37:37 51°13.291 2°40.109 223.5 14 225 13.7
2008-05-07 08:37:42 51°13.278 2°40.087 223.5 13.9 226 13.3
2008-05-07 08:37:47 51°13.264 2°40.065 224 13.9 224 13.1
2008-05-07 08:37:52 51°13.251 2°40.043 223.2 13.9 225 12
2008-05-07 08:37:57 51°13.237 2°40.022 223.4 14 224 13.3
2008-05-07 08:38:02 51°13.223 2°40 223.2 14 225 13.3
2008-05-07 08:38:07 51°13.209 2°39.978 222.7 14 226 13.2
2008-05-07 08:38:12 51°13.195 2°39.956 223.5 14 224 13
2008-05-07 08:38:17 51°13.181 2°39.935 223.1 13.9 224 11.9
2008-05-07 08:38:22 51°13.167 2°39.914 222.5 13.9 223 12.4
2008-05-07 08:38:27 51°13.153 2°39.893 221.5 14 222 12.2
2008-05-07 08:38:32 51°13.139 2°39.872 220.9 14 224 11.4
2008-05-07 08:38:37 51°13.125 2°39.851 220.9 14 221 12.5
2008-05-07 08:38:42 51°13.11 2°39.831 220.1 13.9 222 12.9
2008-05-07 08:38:47 51°13.096 2°39.81 219.8 14 222 13.1
2008-05-07 08:38:52 51°13.081 2°39.789 219.9 14 223 13.1
2008-05-07 08:38:57 51°13.067 2°39.769 220.2 13.9 222 13.2
2008-05-07 08:39:02 51°13.053 2°39.748 220.2 13.9 222 13
2008-05-07 08:39:07 51°13.038 2°39.728 220.1 13.8 222 12.9
2008-05-07 08:39:12 51°13.024 2°39.707 220.6 13.8 222 12.5
2008-05-07 08:39:17 51°13.01 2°39.687 220.1 13.9 222 12.2
2008-05-07 08:39:22 51°12.996 2°39.666 220 13.8 223 12
2008-05-07 08:39:27 51°12.981 2°39.646 220.8 13.8 222 11.5
2008-05-07 08:39:32 51°12.968 2°39.624 220.8 13.8 225 10.3
2008-05-07 08:39:37 51°12.954 2°39.603 222.7 13.8 224 11.8
2008-05-07 08:39:42 51°12.941 2°39.581 223.2 13.9 225 12.5
2008-05-07 08:39:47 51°12.927 2°39.559 223.2 13.9 225 12.6
2008-05-07 08:39:52 51°12.913 2°39.538 223.5 13.9 224 12.6
2008-05-07 08:39:57 51°12.9 2°39.516 223.5 13.9 226 12.5
2008-05-07 08:40:02 51°12.886 2°39.494 224.1 13.9 225 12.4
2008-05-07 08:40:07 51°12.873 2°39.472 224.2 13.9 225 10.7
2008-05-07 08:40:12 51°12.86 2°39.45 224.2 13.8 226 12.2
2008-05-07 08:40:17 51°12.846 2°39.429 224.8 13.9 224 12.5
2008-05-07 08:40:22 51°12.832 2°39.407 223.8 13.9 226 12.3
2008-05-07 08:40:27 51°12.819 2°39.385 224.2 13.9 226 12.3
2008-05-07 08:40:32 51°12.805 2°39.363 224.9 13.9 225 12
2008-05-07 08:40:37 51°12.792 2°39.341 224 13.9 226 11.1
2008-05-07 08:40:42 51°12.778 2°39.32 224.2 13.8 225 10.3
2008-05-07 08:40:47 51°12.765 2°39.299 224.2 13.8 224 11.8
2008-05-07 08:40:52 51°12.751 2°39.277 223.3 13.9 225 11.9
2008-05-07 08:40:57 51°12.736 2°39.256 223.1 13.9 223 11.9
2008-05-07 08:41:02 51°12.722 2°39.235 222.3 13.9 222 11.7
2008-05-07 08:41:07 51°12.708 2°39.215 221.3 13.9 222 11.5
2008-05-07 08:41:12 51°12.694 2°39.194 221 13.8 222 10.9
2008-05-07 08:41:17 51°12.68 2°39.173 220.9 13.9 223 11.6
2008-05-07 08:41:22 51°12.665 2°39.153 221.2 13.9 222 12
2008-05-07 08:41:27 51°12.651 2°39.132 220.8 13.8 224 11.8
2008-05-07 08:41:32 51°12.637 2°39.112 221.2 13.8 221 11.8
2008-05-07 08:41:37 51°12.623 2°39.091 220.1 13.8 222 11.9
2008-05-07 08:41:42 51°12.608 2°39.071 219.8 13.8 222 11.9
2008-05-07 08:41:47 51°12.594 2°39.05 220.2 13.9 221 11.9
2008-05-07 08:41:52 51°12.58 2°39.03 220 13.8 223 11.8
2008-05-07 08:41:57 51°12.566 2°39.01 220.4 13.8 220 11.8
2008-05-07 08:42:02 51°12.551 2°38.99 219.8 13.8 221 11.7
2008-05-07 08:42:07 51°12.537 2°38.97 219.3 13.9 221 12.1
2008-05-07 08:42:12 51°12.523 2°38.949 219.8 13.8 222 11.9
2008-05-07 08:42:17 51°12.508 2°38.928 220.5 13.9 222 12.1